createdAt,value
2022-11-07T00:01:18.745Z,3.47
2022-11-07T00:04:20.690Z,3.80
2022-11-07T00:07:22.400Z,3.72
2022-11-07T00:10:24.238Z,3.40
2022-11-07T00:13:27.472Z,3.38
2022-11-07T00:16:29.383Z,3.72
2022-11-07T00:19:31.346Z,3.50
2022-11-07T00:22:33.206Z,3.50
2022-11-07T00:25:34.825Z,3.78
2022-11-07T00:28:38.633Z,2.95
2022-11-07T00:31:40.541Z,3.28
2022-11-07T00:34:42.078Z,3.40
2022-11-07T00:37:43.923Z,3.17
2022-11-07T00:40:57.111Z,2.92
2022-11-07T00:43:59.204Z,2.90
2022-11-07T00:47:00.797Z,2.80
2022-11-07T00:50:02.499Z,2.47
2022-11-07T00:53:04.166Z,2.53
2022-11-07T00:56:09.201Z,2.55
2022-11-07T00:59:11.120Z,2.90
2022-11-07T01:02:13.023Z,2.40
2022-11-07T01:05:15.064Z,2.85
2022-11-07T01:08:16.678Z,3.00
2022-11-07T01:11:18.360Z,2.47
2022-11-07T01:14:22.709Z,2.42
2022-11-07T01:17:24.382Z,2.90
2022-11-07T01:20:26.207Z,2.40
2022-11-07T01:23:27.996Z,2.45
2022-11-07T01:26:30.126Z,2.40
2022-11-07T01:29:31.964Z,2.25
2022-11-07T01:32:33.593Z,2.45
2022-11-07T01:35:36.399Z,2.25
2022-11-07T01:38:40.736Z,2.05
2022-11-07T01:41:42.587Z,2.28
2022-11-07T01:44:54.448Z,2.28
2022-11-07T01:47:58.926Z,1.90
2022-11-07T01:51:00.615Z,2.00
2022-11-07T01:54:04.248Z,2.42
2022-11-07T01:57:11.597Z,2.20
2022-11-07T02:00:17.818Z,1.90
2022-11-07T02:03:21.421Z,1.90
2022-11-07T02:06:42.416Z,1.92
2022-11-07T02:12:46.459Z,2.25
2022-11-07T02:15:48.165Z,2.00
2022-11-07T02:18:49.779Z,2.30
2022-11-07T02:22:26.459Z,2.40
2022-11-07T02:25:29.737Z,1.65
2022-11-07T02:28:34.564Z,1.80
2022-11-07T02:31:36.470Z,1.67
2022-11-07T02:34:38.612Z,1.58
2022-11-07T02:37:40.531Z,1.40
2022-11-07T02:40:45.691Z,1.77
2022-11-07T02:43:55.343Z,1.63
2022-11-07T02:46:57.691Z,1.67
2022-11-07T02:49:59.510Z,1.63
2022-11-07T02:53:01.372Z,2.05
2022-11-07T02:56:03.589Z,1.58
2022-11-07T02:59:05.178Z,1.60
2022-11-07T03:02:07.088Z,2.15
2022-11-07T03:05:08.999Z,1.60
2022-11-07T03:08:10.633Z,1.98
2022-11-07T03:11:12.865Z,1.63
2022-11-07T03:14:14.660Z,1.60
2022-11-07T03:17:16.487Z,1.50
2022-11-07T03:20:18.232Z,1.92
2022-11-07T03:23:19.995Z,1.95
2022-11-07T03:26:21.804Z,1.92
2022-11-07T03:29:23.388Z,1.52
2022-11-07T03:32:25.280Z,1.65
2022-11-07T03:35:28.094Z,1.55
2022-11-07T03:38:29.849Z,2.10
2022-11-07T03:41:31.544Z,1.80
2022-11-07T03:44:33.190Z,1.70
2022-11-07T03:47:42.676Z,1.80
2022-11-07T03:50:44.443Z,1.55
2022-11-07T03:53:46.169Z,1.50
2022-11-07T03:56:47.938Z,1.48
2022-11-07T03:59:49.631Z,1.33
2022-11-07T04:02:51.387Z,1.30
2022-11-07T04:05:53.529Z,1.50
2022-11-07T04:08:55.492Z,1.40
2022-11-07T04:12:15.751Z,1.77
2022-11-07T04:15:36.091Z,1.40
2022-11-07T04:18:38.243Z,1.42
2022-11-07T04:21:39.952Z,1.35
2022-11-07T04:24:45.931Z,1.23
2022-11-07T04:27:48.051Z,1.60
2022-11-07T04:30:50.055Z,1.40
2022-11-07T04:33:52.048Z,1.40
2022-11-07T04:36:53.580Z,1.58
2022-11-07T04:39:55.315Z,1.20
2022-11-07T04:42:57.296Z,1.40
2022-11-07T04:45:59.224Z,1.27
2022-11-07T04:49:01.108Z,1.50
2022-11-07T04:52:02.930Z,1.38
2022-11-07T04:55:06.718Z,1.58
2022-11-07T04:58:09.577Z,1.30
2022-11-07T05:01:11.571Z,1.20
2022-11-07T05:04:13.511Z,1.50
2022-11-07T05:07:15.236Z,1.35
2022-11-07T05:10:26.143Z,1.40
2022-11-07T05:13:27.848Z,1.30
2022-11-07T05:16:31.442Z,1.30
2022-11-07T05:19:33.184Z,1.52
2022-11-07T05:22:56.241Z,1.30
2022-11-07T05:25:58.335Z,1.55
2022-11-07T05:29:00.090Z,1.23
2022-11-07T05:32:02.189Z,1.30
2022-11-07T05:35:06.565Z,1.30
2022-11-07T05:38:08.256Z,1.27
2022-11-07T05:41:10.366Z,1.23
2022-11-07T05:44:12.482Z,1.35
2022-11-07T05:47:14.245Z,1.60
2022-11-07T05:50:15.888Z,1.42
2022-11-07T05:53:18.439Z,1.63
2022-11-07T05:56:20.438Z,1.10
2022-11-07T05:59:22.365Z,1.40
2022-11-07T06:02:24.425Z,1.20
2022-11-07T06:05:26.821Z,1.23
2022-11-07T06:08:28.582Z,1.20
2022-11-07T06:11:32.819Z,1.10
2022-11-07T06:14:34.579Z,1.15
2022-11-07T06:17:36.761Z,1.40
2022-11-07T06:20:38.556Z,1.20
2022-11-07T06:23:40.290Z,1.42
2022-11-07T06:26:41.882Z,1.35
2022-11-07T06:29:43.803Z,1.50
2022-11-07T06:32:45.898Z,1.38
2022-11-07T06:35:47.997Z,1.45
2022-11-07T06:38:53.121Z,1.40
2022-11-07T06:41:54.989Z,1.48
2022-11-07T06:44:56.803Z,1.38
2022-11-07T06:47:58.580Z,1.50
2022-11-07T06:51:02.414Z,1.52
2022-11-07T06:54:04.457Z,1.48
2022-11-07T06:57:06.576Z,1.10
2022-11-07T07:00:09.389Z,1.50
2022-11-07T07:03:12.190Z,1.40
2022-11-07T07:06:16.067Z,1.30
2022-11-07T07:09:18.209Z,1.17
2022-11-07T07:12:20.211Z,1.38
2022-11-07T07:15:22.642Z,1.45
2022-11-07T07:18:28.031Z,1.40
2022-11-07T07:21:30.783Z,1.45
2022-11-07T07:24:32.506Z,1.33
2022-11-07T07:27:34.473Z,1.45
2022-11-07T07:30:36.510Z,1.23
2022-11-07T07:33:38.380Z,1.25
2022-11-07T07:36:40.259Z,1.40
2022-11-07T07:39:42.186Z,1.30
2022-11-07T07:42:44.439Z,1.45
2022-11-07T07:45:46.605Z,1.30
2022-11-07T07:48:48.538Z,1.00
2022-11-07T07:51:50.500Z,1.38
2022-11-07T07:54:52.350Z,1.52
2022-11-07T07:57:54.112Z,1.33
2022-11-07T08:01:03.511Z,1.20
2022-11-07T08:04:05.563Z,1.25
2022-11-07T08:07:07.778Z,1.63
2022-11-07T08:10:35.000Z,1.20
2022-11-07T08:13:31.758Z,1.45
2022-11-07T08:16:33.689Z,1.50
2022-11-07T08:19:35.370Z,1.13
2022-11-07T08:22:37.966Z,1.42
2022-11-07T08:25:39.988Z,1.60
2022-11-07T08:28:42.090Z,1.30
2022-11-07T08:31:43.850Z,1.45
2022-11-07T08:34:45.979Z,1.20
2022-11-07T08:37:47.863Z,1.50
2022-11-07T08:40:50.965Z,1.13
2022-11-07T08:43:52.668Z,1.27
2022-11-07T08:46:55.459Z,1.30
2022-11-07T08:49:57.417Z,1.30
2022-11-07T08:53:03.050Z,1.30
2022-11-07T08:56:16.425Z,1.30
2022-11-07T08:59:18.889Z,1.00
2022-11-07T09:03:04.365Z,1.50
2022-11-07T09:05:42.526Z,1.17
2022-11-07T09:08:45.038Z,1.15
2022-11-07T09:11:48.462Z,1.48
2022-11-07T09:14:50.377Z,1.15
2022-11-07T09:17:52.712Z,1.48
2022-11-07T09:20:55.029Z,1.38
2022-11-07T09:23:56.903Z,1.58
2022-11-07T09:26:59.824Z,1.45
2022-11-07T09:30:02.174Z,1.08
2022-11-07T09:33:04.019Z,1.20
2022-11-07T09:36:06.563Z,1.10
2022-11-07T09:39:08.504Z,1.45
2022-11-07T09:42:19.422Z,1.30
2022-11-07T09:45:21.244Z,1.58
2022-11-07T09:48:26.405Z,1.50
2022-11-07T09:51:45.040Z,1.45
2022-11-07T09:54:51.731Z,1.20
2022-11-07T09:58:00.452Z,1.23
2022-11-07T10:01:11.576Z,1.30
2022-11-07T10:04:25.777Z,1.38
2022-11-07T10:07:44.835Z,1.35
2022-11-07T10:10:53.457Z,1.23
2022-11-07T10:14:02.195Z,1.27
2022-11-07T10:17:25.792Z,1.15
2022-11-07T10:20:33.421Z,1.17
2022-11-07T10:23:50.989Z,1.23
2022-11-07T10:26:53.708Z,1.70
2022-11-07T10:29:56.325Z,1.30
2022-11-07T10:33:18.451Z,1.63
2022-11-07T10:36:22.894Z,1.08
2022-11-07T10:39:24.738Z,1.20
2022-11-07T10:42:30.883Z,1.20
2022-11-07T10:45:32.911Z,1.17
2022-11-07T10:48:35.070Z,1.40
2022-11-07T10:51:43.641Z,1.02
2022-11-07T10:54:46.526Z,1.40
2022-11-07T10:58:04.087Z,1.23
2022-11-07T11:01:08.886Z,1.48
2022-11-07T11:04:21.203Z,1.40
2022-11-07T11:07:34.178Z,1.13
2022-11-07T11:10:39.480Z,1.40
2022-11-07T11:13:41.616Z,1.40
2022-11-07T11:16:44.246Z,1.30
2022-11-07T11:19:55.353Z,1.17
2022-11-07T11:22:57.891Z,1.48
2022-11-07T11:26:05.694Z,1.42
2022-11-07T11:29:11.832Z,1.10
2022-11-07T11:32:37.978Z,1.20
2022-11-07T11:36:09.012Z,1.70
2022-11-07T11:39:32.923Z,1.75
2022-11-07T11:42:49.332Z,1.27
2022-11-07T11:46:11.144Z,1.17
2022-11-07T11:49:19.901Z,1.00
2022-11-07T11:52:24.374Z,1.20
2022-11-07T11:55:36.010Z,1.15
2022-11-07T11:58:59.158Z,1.20
2022-11-07T12:02:33.275Z,1.23
2022-11-07T12:05:59.581Z,1.75
2022-11-07T12:09:27.893Z,1.40
2022-11-07T12:12:37.930Z,1.25
2022-11-07T12:16:07.934Z,1.20
2022-11-07T12:19:15.667Z,1.20
2022-11-07T12:22:32.041Z,1.60
2022-11-07T12:25:49.446Z,1.67
2022-11-07T12:29:25.208Z,1.30
2022-11-07T12:32:51.668Z,1.17
2022-11-07T12:36:02.955Z,1.98
2022-11-07T12:39:24.748Z,1.50
2022-11-07T12:42:49.812Z,1.25
2022-11-07T12:46:05.432Z,1.30
2022-11-07T12:49:25.043Z,1.38
2022-11-07T12:53:03.303Z,1.70
2022-11-07T12:56:15.773Z,1.70
2022-11-07T12:59:26.331Z,1.50
2022-11-07T13:02:59.792Z,1.90
2022-11-07T13:06:39.522Z,2.45
2022-11-07T13:09:55.898Z,2.08
2022-11-07T13:13:16.869Z,1.50
2022-11-07T13:16:28.428Z,1.63
2022-11-07T13:19:34.077Z,1.67
2022-11-07T13:22:42.345Z,1.85
2022-11-07T13:25:44.396Z,1.38
2022-11-07T13:28:58.512Z,1.30
2022-11-07T13:32:19.082Z,1.40
2022-11-07T13:35:39.020Z,1.20
2022-11-07T13:38:49.096Z,1.63
2022-11-07T13:41:51.270Z,1.20
2022-11-07T13:44:56.816Z,1.30
2022-11-07T13:48:05.338Z,1.02
2022-11-07T13:51:29.249Z,1.00
2022-11-07T13:54:38.442Z,1.30
2022-11-07T13:58:03.989Z,1.00
2022-11-07T14:01:11.662Z,1.05
2022-11-07T14:04:16.472Z,1.05
2022-11-07T14:07:23.412Z,1.30
2022-11-07T14:10:49.229Z,1.55
2022-11-07T14:13:54.629Z,1.20
2022-11-07T14:17:02.588Z,1.20
2022-11-07T14:20:19.941Z,0.95
2022-11-07T14:23:23.660Z,1.30
2022-11-07T14:26:30.864Z,1.05
2022-11-07T14:29:33.301Z,1.23
2022-11-07T14:32:36.078Z,1.10
2022-11-07T14:35:47.605Z,1.20
2022-11-07T14:39:03.575Z,1.40
2022-11-07T14:42:05.824Z,1.20
2022-11-07T14:45:12.050Z,1.50
2022-11-07T14:48:17.328Z,1.80
2022-11-07T14:51:25.150Z,1.60
2022-11-07T14:54:35.977Z,1.80
2022-11-07T15:00:52.179Z,1.48
2022-11-07T15:04:00.542Z,1.50
2022-11-07T15:07:24.331Z,1.60
2022-11-07T15:10:44.191Z,1.13
2022-11-07T15:13:48.661Z,1.30
2022-11-07T15:16:52.080Z,1.60
2022-11-07T15:20:07.429Z,1.33
2022-11-07T15:23:12.837Z,1.42
2022-11-07T15:26:22.223Z,1.42
2022-11-07T15:29:23.854Z,1.60
2022-11-07T15:32:32.804Z,1.40
2022-11-07T15:35:49.756Z,1.73
2022-11-07T15:38:52.898Z,1.55
2022-11-07T15:41:55.831Z,1.70
2022-11-07T15:44:57.738Z,1.40
2022-11-07T15:47:59.935Z,1.75
2022-11-07T15:51:01.783Z,1.40
2022-11-07T15:54:04.123Z,1.52
2022-11-07T15:57:07.645Z,1.42
2022-11-07T16:00:18.191Z,1.52
2022-11-07T16:03:23.409Z,1.50
2022-11-07T16:06:30.879Z,1.80
2022-11-07T16:09:33.249Z,1.63
2022-11-07T16:12:35.225Z,1.70
2022-11-07T16:15:37.526Z,1.65
2022-11-07T16:18:44.078Z,1.60
2022-11-07T16:21:48.109Z,1.75
2022-11-07T16:24:50.299Z,1.35
2022-11-07T16:27:55.071Z,1.80
2022-11-07T16:30:57.209Z,1.88
2022-11-07T16:33:59.816Z,1.60
2022-11-07T16:37:01.691Z,1.50
2022-11-07T16:40:06.112Z,1.75
2022-11-07T16:43:08.663Z,1.90
2022-11-07T16:46:16.051Z,1.77
2022-11-07T16:49:30.802Z,1.70
2022-11-07T16:52:32.996Z,1.45
2022-11-07T16:55:35.039Z,1.58
2022-11-07T16:58:38.942Z,1.63
2022-11-07T17:01:40.915Z,1.70
2022-11-07T17:04:43.088Z,1.58
2022-11-07T17:07:45.223Z,1.55
2022-11-07T17:10:47.565Z,1.65
2022-11-07T17:13:49.541Z,1.42
2022-11-07T17:16:51.375Z,1.95
2022-11-07T17:19:53.522Z,1.70
2022-11-07T17:22:55.539Z,1.45
2022-11-07T17:26:02.464Z,1.60
2022-11-07T17:29:07.165Z,2.15
2022-11-07T17:32:08.923Z,1.60
2022-11-07T17:35:31.028Z,1.90
2022-11-07T17:38:33.202Z,2.00
2022-11-07T17:41:35.295Z,1.83
2022-11-07T17:44:37.465Z,1.67
2022-11-07T17:47:39.832Z,1.40
2022-11-07T17:50:41.987Z,1.90
2022-11-07T17:53:43.807Z,1.40
2022-11-07T17:56:45.771Z,1.70
2022-11-07T17:59:48.082Z,2.53
2022-11-07T18:02:52.310Z,1.88
2022-11-07T18:05:54.404Z,1.70
2022-11-07T18:08:58.154Z,1.65
2022-11-07T18:12:00.311Z,2.00
2022-11-07T18:15:02.290Z,1.58
2022-11-07T18:18:10.617Z,1.77
2022-11-07T18:21:13.293Z,1.73
2022-11-07T18:24:15.432Z,1.88
2022-11-07T18:27:17.621Z,1.67
2022-11-07T18:30:21.979Z,1.45
2022-11-07T18:33:38.240Z,2.20
2022-11-07T18:36:46.500Z,2.05
2022-11-07T18:39:48.608Z,2.10
2022-11-07T18:42:50.756Z,2.00
2022-11-07T18:45:53.893Z,1.85
2022-11-07T18:48:59.425Z,1.67
2022-11-07T18:52:01.768Z,1.42
2022-11-07T18:55:05.492Z,1.63
2022-11-07T18:58:11.354Z,1.70
2022-11-07T19:01:28.129Z,1.60
2022-11-07T19:04:30.127Z,1.77
2022-11-07T19:07:32.884Z,1.83
2022-11-07T19:10:34.961Z,1.92
2022-11-07T19:13:39.671Z,1.42
2022-11-07T19:16:41.591Z,1.83
2022-11-07T19:19:43.722Z,1.65
2022-11-07T19:22:45.948Z,1.60
2022-11-07T19:25:48.636Z,1.75
2022-11-07T19:28:52.397Z,1.52
2022-11-07T19:31:54.463Z,1.20
2022-11-07T19:35:03.900Z,1.40
2022-11-07T19:38:08.972Z,1.35
2022-11-07T19:41:12.230Z,1.42
2022-11-07T19:44:17.237Z,1.40
2022-11-07T19:47:19.014Z,1.48
2022-11-07T19:50:22.389Z,1.65
2022-11-07T19:53:26.848Z,1.30
2022-11-07T19:56:31.965Z,1.35
2022-11-07T19:59:33.870Z,1.30
2022-11-07T20:02:44.397Z,1.45
2022-11-07T20:05:48.989Z,1.20
2022-11-07T20:08:51.433Z,1.50
2022-11-07T20:11:53.254Z,1.25
2022-11-07T20:14:57.696Z,1.50
2022-11-07T20:17:59.478Z,1.40
2022-11-07T20:21:04.214Z,1.40
2022-11-07T20:24:10.859Z,1.75
2022-11-07T20:27:13.662Z,1.30
2022-11-07T20:30:15.345Z,1.52
2022-11-07T20:33:17.581Z,1.50
2022-11-07T20:36:21.936Z,1.20
2022-11-07T20:39:23.579Z,1.50
2022-11-07T20:42:25.556Z,1.52
2022-11-07T20:45:27.602Z,1.65
2022-11-07T20:48:29.423Z,1.33
2022-11-07T20:51:31.581Z,1.80
2022-11-07T20:54:35.670Z,1.20
2022-11-07T20:57:37.456Z,1.30
2022-11-07T21:00:41.248Z,1.50
2022-11-07T21:03:43.282Z,1.80
2022-11-07T21:06:45.342Z,1.50
2022-11-07T21:09:47.247Z,1.67
2022-11-07T21:12:56.123Z,1.70
2022-11-07T21:15:57.855Z,1.35
2022-11-07T21:18:59.995Z,1.30
2022-11-07T21:22:01.706Z,1.50
2022-11-07T21:25:07.100Z,1.55
2022-11-07T21:28:12.249Z,1.70
2022-11-07T21:31:18.716Z,1.58
2022-11-07T21:34:20.862Z,1.42
2022-11-07T21:37:31.215Z,1.40
2022-11-07T21:40:34.411Z,1.30
2022-11-07T21:43:37.273Z,1.40
2022-11-07T21:46:39.569Z,1.50
2022-11-07T21:49:41.637Z,1.92
2022-11-07T21:52:49.695Z,1.40
2022-11-07T21:55:51.618Z,1.60
2022-11-07T21:58:57.305Z,1.58
2022-11-07T22:01:59.138Z,2.50
2022-11-07T22:05:00.980Z,1.38
2022-11-07T22:08:03.037Z,1.38
2022-11-07T22:11:06.331Z,1.38
2022-11-07T22:14:09.242Z,1.50
2022-11-07T22:17:11.033Z,2.05
2022-11-07T22:20:12.979Z,1.80
2022-11-07T22:23:15.074Z,1.90
2022-11-07T22:26:23.305Z,1.45
2022-11-07T22:29:25.149Z,1.45
2022-11-07T22:32:27.232Z,1.50
2022-11-07T22:35:29.269Z,1.40
2022-11-07T22:38:32.979Z,1.38
2022-11-07T22:41:34.874Z,1.60
2022-11-07T22:44:40.049Z,1.30
2022-11-07T22:47:44.241Z,1.50
2022-11-07T22:50:45.985Z,1.48
2022-11-07T22:53:48.089Z,1.65
2022-11-07T22:56:49.976Z,1.33
2022-11-07T22:59:51.818Z,1.67
2022-11-07T23:02:54.861Z,1.45
2022-11-07T23:05:56.811Z,1.50
2022-11-07T23:09:00.175Z,1.40
2022-11-07T23:12:02.075Z,1.70
2022-11-07T23:15:05.308Z,1.50
2022-11-07T23:18:06.866Z,1.25
2022-11-07T23:21:14.846Z,1.70
2022-11-07T23:24:17.276Z,1.48
2022-11-07T23:27:19.556Z,1.80
2022-11-07T23:30:21.729Z,1.73
2022-11-07T23:33:23.957Z,1.70
2022-11-07T23:36:25.916Z,1.50
2022-11-07T23:39:27.726Z,1.63
2022-11-07T23:42:31.085Z,1.38
2022-11-07T23:45:51.576Z,1.63
2022-11-07T23:49:14.748Z,1.83
2022-11-07T23:52:17.976Z,1.98
2022-11-07T23:55:38.628Z,1.40
2022-11-07T23:58:59.618Z,1.50
